Time;durP1;ratioP1;P1;durP2;ratioP2;P2;SDS_P1;SDS_P2;PMS_P1;PMS_P2;Temp;Humidity;BMP_temperature;BMP_pressure;BME280_temperature;BME280_humidity;BME280_pressure;Samples;Min_cycle;Max_cycle;Signal;HPM_P1;HPM_P2
2022/12/19 00:03:24;;;;;;;40.13;20.77;;;0.70;99.90;;;;;;5190574;27;20129;-62
2022/12/19 00:05:50;;;;;;;45.17;21.38;;;0.80;99.90;;;;;;5149368;27;20039;-60
2022/12/19 00:08:15;;;;;;;45.50;22.05;;;0.80;99.90;;;;;;5128119;27;20454;-62
2022/12/19 00:10:42;;;;;;;44.63;21.70;;;0.80;99.90;;;;;;5133723;27;20376;-62
2022/12/19 00:13:08;;;;;;;46.92;21.88;;;0.80;99.90;;;;;;5089404;28;20150;-62
2022/12/19 00:15:34;;;;;;;49.40;22.73;;;0.80;99.90;;;;;;5080585;28;20094;-63
2022/12/19 00:18:00;;;;;;;51.58;22.85;;;0.80;99.90;;;;;;5048774;28;20052;-65
2022/12/19 00:20:26;;;;;;;47.42;21.55;;;0.80;99.90;;;;;;4971055;28;20138;-62
2022/12/19 00:22:51;;;;;;;45.30;21.30;;;0.80;99.90;;;;;;4947368;28;20738;-62
2022/12/19 00:25:17;;;;;;;43.20;21.02;;;0.90;99.90;;;;;;4892812;29;20053;-62
2022/12/19 00:27:50;;;;;;;44.72;21.30;;;0.90;99.90;;;;;;5192484;27;20589;-62
2022/12/19 00:30:16;;;;;;;43.92;20.20;;;0.90;99.90;;;;;;5162575;27;20042;-62
2022/12/19 00:32:41;;;;;;;43.95;21.23;;;0.90;99.90;;;;;;5164055;27;20087;-62
2022/12/19 00:35:07;;;;;;;47.72;21.50;;;1.00;99.90;;;;;;5154611;27;20046;-61
2022/12/19 00:37:33;;;;;;;46.72;22.63;;;1.00;99.90;;;;;;5124868;27;20125;-61
2022/12/19 00:39:58;;;;;;;47.38;22.50;;;1.00;99.90;;;;;;5075968;28;20136;-62
2022/12/19 00:42:24;;;;;;;45.30;22.13;;;0.90;99.90;;;;;;5034037;28;20392;-62
2022/12/19 00:44:49;;;;;;;44.70;22.35;;;1.00;99.90;;;;;;4960634;28;20046;-62
2022/12/19 00:47:15;;;;;;;44.45;21.95;;;1.00;99.90;;;;;;4954679;28;20084;-61
2022/12/19 00:49:40;;;;;;;46.45;22.63;;;0.90;99.90;;;;;;4907532;29;20219;-65
2022/12/19 00:52:18;;;;;;;47.15;21.77;;;1.00;99.90;;;;;;5197066;27;20144;-62
2022/12/19 00:54:44;;;;;;;45.05;21.73;;;1.00;99.90;;;;;;5164989;27;20477;-62
2022/12/19 00:57:09;;;;;;;48.38;21.85;;;1.00;99.90;;;;;;5167895;27;20046;-59
2022/12/19 00:59:35;;;;;;;46.40;22.20;;;1.00;99.90;;;;;;5163838;27;20069;-62
2022/12/19 01:02:00;;;;;;;46.03;21.70;;;1.00;99.90;;;;;;5143248;27;20121;-62
2022/12/19 01:04:26;;;;;;;44.40;21.30;;;1.00;99.90;;;;;;5088184;28;20040;-62
2022/12/19 01:06:52;;;;;;;46.85;21.70;;;1.00;99.90;;;;;;5068358;28;20161;-65
2022/12/19 01:09:17;;;;;;;42.45;21.42;;;1.10;99.90;;;;;;5021525;28;20105;-62
2022/12/19 01:14:27;;;;;;;49.22;21.98;;;1.10;99.90;;;;;;4993071;28;20050;-62
2022/12/19 01:19:31;;;;;;;46.70;22.15;;;1.10;99.90;;;;;;5196218;27;20129;-62
2022/12/19 01:21:57;;;;;;;45.58;21.60;;;1.20;99.90;;;;;;5159651;27;20159;-62
2022/12/19 01:24:22;;;;;;;45.45;20.63;;;1.20;99.90;;;;;;5148376;27;20146;-62
2022/12/19 01:26:48;;;;;;;44.78;21.02;;;1.20;99.90;;;;;;5105673;27;20042;-61
2022/12/19 01:29:14;;;;;;;43.25;21.10;;;1.20;99.90;;;;;;5118791;27;20132;-62
2022/12/19 01:31:39;;;;;;;48.30;22.02;;;1.20;99.90;;;;;;5039331;28;20103;-62
2022/12/19 01:34:05;;;;;;;44.80;20.70;;;1.30;99.90;;;;;;5043448;28;20451;-62
2022/12/19 01:36:31;;;;;;;44.65;20.75;;;1.20;99.90;;;;;;5023893;28;20053;-61
2022/12/19 01:38:57;;;;;;;43.60;21.05;;;1.30;99.90;;;;;;5036895;28;20041;-62
2022/12/19 01:41:23;;;;;;;42.80;20.88;;;1.30;99.90;;;;;;4978547;28;24543;-62
2022/12/19 01:46:41;;;;;;;47.10;21.10;;;1.30;99.90;;;;;;5182292;27;20479;-60
2022/12/19 01:49:26;;;;;;;44.40;20.80;;;1.40;99.90;;;;;;5126045;27;20044;-63
2022/12/19 01:51:56;;;;;;;48.47;20.77;;;1.40;99.90;;;;;;5097359;27;20035;-62
2022/12/19 01:54:28;;;;;;;49.83;21.98;;;1.40;99.90;;;;;;5134165;27;20050;-62
2022/12/19 01:56:56;;;;;;;44.63;22.27;;;1.40;99.90;;;;;;5092517;28;20189;-62
2022/12/19 01:59:31;;;;;;;49.00;21.42;;;1.40;99.90;;;;;;5085729;28;20055;-62
2022/12/19 02:02:06;;;;;;;42.20;20.35;;;1.40;99.90;;;;;;5051051;28;20050;-63
2022/12/19 02:04:33;;;;;;;45.83;21.80;;;1.40;99.90;;;;;;4989148;28;20190;-62
2022/12/19 02:09:55;;;;;;;46.03;21.23;;;1.40;99.90;;;;;;5191249;27;20137;-59
2022/12/19 02:12:27;;;;;;;49.22;22.48;;;1.40;99.90;;;;;;5169451;27;20050;-60
2022/12/19 02:14:55;;;;;;;50.45;23.30;;;1.40;99.90;;;;;;5125655;27;20049;-60
2022/12/19 02:17:30;;;;;;;50.25;23.00;;;1.40;99.90;;;;;;5138915;27;20035;-63
2022/12/19 02:20:24;;;;;;;54.38;22.80;;;1.40;99.90;;;;;;5086463;28;20088;-59
2022/12/19 02:23:31;;;;;;;49.75;22.85;;;1.40;99.90;;;;;;5074241;28;20052;-59
2022/12/19 02:26:16;;;;;;;47.97;23.65;;;1.40;99.90;;;;;;4973941;28;20050;-59
2022/12/19 02:28:45;;;;;;;51.30;22.88;;;1.40;99.90;;;;;;4813489;29;20068;-62
2022/12/19 02:31:18;;;;;;;54.40;23.70;;;1.40;99.90;;;;;;4785278;29;20478;-59
2022/12/19 02:36:55;;;;;;;63.78;32.38;;;1.40;99.90;;;;;;5191258;27;20395;-62
2022/12/19 02:39:40;;;;;;;54.53;25.95;;;1.40;99.90;;;;;;5121496;27;20047;-58
2022/12/19 02:42:10;;;;;;;54.33;24.02;;;1.40;99.90;;;;;;5115674;27;20378;-60
2022/12/19 02:44:44;;;;;;;48.53;23.17;;;1.50;99.90;;;;;;5061713;28;20034;-61
2022/12/19 02:47:11;;;;;;;49.63;22.70;;;1.50;99.90;;;;;;4997296;28;20042;-62
2022/12/19 02:49:37;;;;;;;53.42;24.55;;;1.50;99.90;;;;;;5010963;28;20090;-63
2022/12/19 02:52:32;;;;;;;51.38;24.13;;;1.50;99.90;;;;;;4965349;28;20482;-62
2022/12/19 02:55:06;;;;;;;51.58;23.90;;;1.60;99.90;;;;;;4907296;29;20085;-60
2022/12/19 02:57:44;;;;;;;50.45;23.17;;;1.60;99.90;;;;;;4852443;29;20051;-61
2022/12/19 03:00:22;;;;;;;53.90;24.13;;;1.60;99.90;;;;;;5197892;27;20284;-61
2022/12/19 03:03:14;;;;;;;58.90;25.42;;;1.60;99.90;;;;;;5129129;27;20517;-61
2022/12/19 03:05:58;;;;;;;52.08;23.52;;;1.70;99.90;;;;;;5147209;27;20317;-61
2022/12/19 03:08:30;;;;;;;54.55;24.30;;;1.70;99.90;;;;;;5121932;27;20047;-61
2022/12/19 03:11:06;;;;;;;50.47;25.05;;;1.70;99.90;;;;;;5144085;27;20053;-61
2022/12/19 03:13:38;;;;;;;57.10;24.95;;;1.70;99.90;;;;;;5054183;28;20046;-62
2022/12/19 03:16:07;;;;;;;52.83;25.17;;;1.70;99.90;;;;;;4947977;28;20047;-63
2022/12/19 03:18:33;;;;;;;51.72;25.23;;;1.80;99.90;;;;;;4929174;29;20047;-60
2022/12/19 03:21:20;;;;;;;60.45;25.88;;;1.80;99.90;;;;;;5203957;27;20487;-62
2022/12/19 03:23:48;;;;;;;57.45;24.85;;;1.80;99.90;;;;;;5140417;27;20043;-62
2022/12/19 03:26:19;;;;;;;52.15;24.33;;;1.80;99.90;;;;;;5134113;27;20118;-60
2022/12/19 03:28:50;;;;;;;62.00;27.87;;;1.80;99.90;;;;;;5140183;27;20039;-61
2022/12/19 03:31:20;;;;;;;56.03;25.27;;;1.90;99.90;;;;;;5094301;28;20052;-61
2022/12/19 03:33:49;;;;;;;57.58;24.95;;;1.90;99.90;;;;;;5076697;28;20124;-65
2022/12/19 03:36:20;;;;;;;56.42;26.73;;;1.90;99.90;;;;;;5070804;28;20122;-62
2022/12/19 03:38:47;;;;;;;56.42;25.85;;;1.90;99.90;;;;;;5032270;28;20053;-60
2022/12/19 03:41:15;;;;;;;55.85;26.70;;;1.90;99.90;;;;;;4982590;28;20038;-61
2022/12/19 03:43:42;;;;;;;63.38;28.67;;;2.00;99.90;;;;;;4881952;29;20037;-61
2022/12/19 03:46:23;;;;;;;62.80;26.60;;;2.00;99.90;;;;;;5196154;27;20120;-61
2022/12/19 03:48:51;;;;;;;64.68;28.15;;;2.00;99.90;;;;;;5132759;27;20047;-61
2022/12/19 03:51:34;;;;;;;59.42;27.05;;;2.00;99.90;;;;;;5151093;27;20043;-61
2022/12/19 03:54:12;;;;;;;;;;;2.00;99.90;;;;;;5127382;27;20405;-61
2022/12/19 03:57:02;;;;;;;55.53;26.48;;;2.00;99.90;;;;;;5087265;28;19920;-61
2022/12/19 03:59:56;;;;;;;55.33;26.30;;;2.10;99.90;;;;;;5095265;28;20078;-61
2022/12/19 04:02:22;;;;;;;63.15;27.75;;;2.10;99.90;;;;;;5000241;28;20061;-62
2022/12/19 04:04:54;;;;;;;59.88;27.60;;;2.10;99.90;;;;;;4989749;28;20053;-61
2022/12/19 04:07:21;;;;;;;59.72;27.58;;;2.10;99.90;;;;;;4912636;29;20040;-62
2022/12/19 04:09:47;;;;;;;60.10;27.45;;;2.20;99.90;;;;;;4892049;29;20545;-61
2022/12/19 04:12:30;;;;;;;61.72;26.30;;;2.20;99.90;;;;;;5194973;27;20478;-62
2022/12/19 04:14:56;;;;;;;57.43;27.20;;;2.30;99.90;;;;;;5117205;27;20040;-61
2022/12/19 04:17:33;;;;;;;63.33;26.83;;;2.30;99.90;;;;;;5106892;28;20649;-62
2022/12/19 04:20:08;;;;;;;61.50;28.35;;;2.30;99.90;;;;;;5082232;28;20041;-63
2022/12/19 04:22:55;;;;;;;60.60;26.45;;;2.30;99.90;;;;;;5086594;28;20071;-62
2022/12/19 04:25:28;;;;;;;63.50;26.90;;;2.40;99.90;;;;;;5080241;28;20044;-61
2022/12/19 04:27:58;;;;;;;58.92;25.88;;;2.40;99.90;;;;;;5032265;28;20160;-62
2022/12/19 04:30:24;;;;;;;53.28;25.17;;;2.50;99.90;;;;;;4940042;28;20106;-61
2022/12/19 04:32:50;;;;;;;54.83;26.40;;;2.50;99.90;;;;;;4886442;29;20045;-62
2022/12/19 04:35:16;;;;;;;59.08;24.85;;;2.50;99.90;;;;;;4836641;29;20041;-63
2022/12/19 04:37:53;;;;;;;55.22;26.27;;;2.50;99.90;;;;;;5187543;27;20583;-60
2022/12/19 04:40:18;;;;;;;56.60;26.35;;;2.60;99.90;;;;;;5176043;27;20043;-59
2022/12/19 04:42:44;;;;;;;65.82;26.33;;;2.60;99.90;;;;;;5170733;27;20038;-61
2022/12/19 04:45:10;;;;;;;59.05;24.63;;;2.60;99.90;;;;;;5140310;27;20039;-61
2022/12/19 04:47:35;;;;;;;55.05;25.17;;;2.60;99.90;;;;;;5124671;27;20485;-59
2022/12/19 04:50:01;;;;;;;60.42;26.35;;;2.60;99.90;;;;;;5100775;27;20123;-60
2022/12/19 04:52:27;;;;;;;52.00;24.02;;;2.70;99.90;;;;;;5105496;28;20052;-60
2022/12/19 04:54:52;;;;;;;57.25;25.73;;;2.70;99.90;;;;;;5010864;28;20481;-63
2022/12/19 04:57:18;;;;;;;63.47;26.98;;;2.70;99.90;;;;;;4980352;28;20053;-62
2022/12/19 04:59:43;;;;;;;56.55;24.40;;;2.70;99.90;;;;;;4924091;28;20031;-61
2022/12/19 05:02:20;;;;;;;62.38;26.42;;;2.70;99.90;;;;;;5199159;27;20124;-62
2022/12/19 05:04:46;;;;;;;59.38;26.25;;;2.80;99.90;;;;;;5148680;27;20413;-62
2022/12/19 05:07:12;;;;;;;59.65;26.60;;;2.80;99.90;;;;;;5152250;27;20397;-62
2022/12/19 05:09:38;;;;;;;56.33;24.60;;;2.80;99.90;;;;;;5147166;27;20031;-62
2022/12/19 05:12:04;;;;;;;51.67;25.02;;;2.80;99.90;;;;;;5128060;27;20055;-61
2022/12/19 05:14:31;;;;;;;52.15;24.73;;;2.90;99.90;;;;;;5122182;27;20126;-61
2022/12/19 05:16:56;;;;;;;55.13;24.75;;;2.90;99.90;;;;;;5114985;28;20080;-62
2022/12/19 05:19:22;;;;;;;55.28;24.20;;;3.00;99.90;;;;;;5110101;28;20047;-62
2022/12/19 05:21:47;;;;;;;53.47;22.75;;;3.00;99.90;;;;;;5049449;28;20076;-62
2022/12/19 05:24:13;;;;;;;56.60;24.38;;;3.00;99.90;;;;;;4933746;28;20040;-63
2022/12/19 05:26:48;;;;;;;52.80;24.27;;;3.10;99.90;;;;;;5180514;27;20152;-62
2022/12/19 05:29:13;;;;;;;53.65;24.33;;;3.10;99.90;;;;;;5176263;27;20049;-63
2022/12/19 05:31:39;;;;;;;54.42;23.73;;;3.10;99.90;;;;;;5168620;27;20039;-62
2022/12/19 05:34:04;;;;;;;53.17;24.60;;;3.10;99.90;;;;;;5139018;27;20126;-62
2022/12/19 05:36:30;;;;;;;44.28;21.00;;;3.20;99.90;;;;;;5087755;28;20467;-62
2022/12/19 05:38:56;;;;;;;51.22;23.75;;;3.20;99.90;;;;;;5067382;28;20049;-62
2022/12/19 05:41:21;;;;;;;49.35;21.45;;;3.20;99.90;;;;;;4994979;28;20049;-64
2022/12/19 05:43:52;;;;;;;41.70;20.88;;;3.20;99.90;;;;;;5012625;28;20515;-62
2022/12/19 05:46:19;;;;;;;42.10;20.05;;;3.30;99.90;;;;;;4994556;28;20038;-63
2022/12/19 05:48:44;;;;;;;45.65;21.30;;;3.30;99.90;;;;;;4964986;28;20159;-64
2022/12/19 05:51:18;;;;;;;42.10;20.27;;;3.40;99.90;;;;;;5182496;27;20133;-63
2022/12/19 05:53:44;;;;;;;47.65;21.83;;;3.40;99.90;;;;;;5152226;27;20039;-63
2022/12/19 05:56:12;;;;;;;43.47;20.60;;;3.40;99.90;;;;;;5105535;27;20067;-61
2022/12/19 05:58:39;;;;;;;43.08;20.95;;;3.40;99.90;;;;;;5146294;27;20051;-64
2022/12/19 06:01:11;;;;;;;39.95;19.63;;;3.40;99.90;;;;;;5121255;27;20039;-62
2022/12/19 06:03:37;;;;;;;40.00;20.08;;;3.40;99.90;;;;;;5070564;28;20555;-62
2022/12/19 06:06:05;;;;;;;43.92;21.73;;;3.40;99.90;;;;;;5059083;28;20037;-63
2022/12/19 06:08:30;;;;;;;49.40;21.08;;;3.50;99.90;;;;;;4992771;28;20046;-63
2022/12/19 06:11:01;;;;;;;39.70;19.95;;;3.50;99.90;;;;;;4902204;28;20504;-64
2022/12/19 06:13:28;;;;;;;42.63;20.50;;;3.50;99.90;;;;;;4809006;29;20047;-62
2022/12/19 06:16:10;;;;;;;43.55;20.88;;;3.50;99.90;;;;;;5184346;27;20121;-63
2022/12/19 06:18:35;;;;;;;46.15;21.13;;;3.50;99.90;;;;;;5138637;27;20053;-63
2022/12/19 06:21:05;;;;;;;40.75;20.80;;;3.60;99.90;;;;;;5179746;27;20376;-62
2022/12/19 06:23:33;;;;;;;41.45;20.98;;;3.50;99.90;;;;;;5154863;27;20039;-62
2022/12/19 06:26:01;;;;;;;42.75;19.52;;;3.50;99.90;;;;;;5086654;28;20075;-63
2022/12/19 06:28:28;;;;;;;40.30;20.20;;;3.60;99.90;;;;;;5105957;27;20133;-64
2022/12/19 06:30:58;;;;;;;36.00;18.73;;;3.60;99.90;;;;;;5133225;27;20066;-63
2022/12/19 06:33:24;;;;;;;41.83;20.17;;;3.60;99.90;;;;;;5122194;27;20067;-63
2022/12/19 06:35:58;;;;;;;39.22;20.02;;;3.60;99.90;;;;;;5126264;27;20039;-67
2022/12/19 06:38:24;;;;;;;36.28;19.42;;;3.60;99.90;;;;;;5027226;28;20334;-62
2022/12/19 06:43:42;;;;;;;36.70;19.30;;;3.70;99.90;;;;;;5137330;27;20532;-63
2022/12/19 06:46:08;;;;;;;40.03;19.17;;;3.70;99.90;;;;;;5128004;27;20039;-63
2022/12/19 06:48:34;;;;;;;37.40;18.30;;;3.70;99.90;;;;;;5127013;27;20043;-63
2022/12/19 06:51:00;;;;;;;41.13;18.20;;;3.70;99.90;;;;;;5099407;28;20071;-64
2022/12/19 06:53:25;;;;;;;34.80;18.10;;;3.80;99.90;;;;;;5105619;28;20050;-64
2022/12/19 06:55:54;;;;;;;36.20;18.17;;;3.80;99.90;;;;;;5094036;28;20189;-61
2022/12/19 06:58:20;;;;;;;40.63;19.23;;;3.80;99.90;;;;;;5067224;28;20060;-64
2022/12/19 07:00:45;;;;;;;33.55;17.67;;;3.90;99.90;;;;;;5008524;28;20218;-62
2022/12/19 07:03:14;;;;;;;37.60;18.38;;;3.80;99.90;;;;;;4955134;28;20030;-62
2022/12/19 07:05:52;;;;;;;32.90;17.13;;;3.90;99.90;;;;;;5189943;27;20132;-64
2022/12/19 07:08:18;;;;;;;35.05;18.63;;;3.90;99.90;;;;;;5184345;27;20418;-63
2022/12/19 07:10:44;;;;;;;35.42;17.27;;;3.90;99.90;;;;;;5162829;27;20091;-61
2022/12/19 07:13:09;;;;;;;35.85;17.77;;;3.90;99.90;;;;;;5143412;27;20058;-62
2022/12/19 07:15:36;;;;;;;38.47;17.75;;;4.00;99.90;;;;;;5114325;27;20039;-62
2022/12/19 07:18:04;;;;;;;31.58;16.70;;;4.00;99.90;;;;;;5099971;28;20063;-61
2022/12/19 07:20:31;;;;;;;35.45;16.92;;;4.00;99.90;;;;;;5061131;28;20059;-61
2022/12/19 07:22:57;;;;;;;32.58;16.13;;;4.10;99.90;;;;;;5053797;28;20472;-62
2022/12/19 07:25:23;;;;;;;32.28;17.08;;;4.10;99.90;;;;;;5025306;28;20074;-62
2022/12/19 07:27:48;;;;;;;32.50;16.95;;;4.10;99.90;;;;;;4946826;28;20110;-64
2022/12/19 07:30:26;;;;;;;33.08;16.70;;;4.10;99.90;;;;;;5192486;27;20132;-62
2022/12/19 07:32:51;;;;;;;32.35;16.58;;;4.10;99.90;;;;;;5131689;27;20050;-62
2022/12/19 07:35:17;;;;;;;32.83;16.02;;;4.20;99.90;;;;;;5154873;27;20047;-62
2022/12/19 07:37:43;;;;;;;31.70;15.35;;;4.20;99.90;;;;;;5140820;27;20078;-65
2022/12/19 07:40:10;;;;;;;33.35;16.38;;;4.20;99.90;;;;;;5077798;28;20057;-64
2022/12/19 07:42:35;;;;;;;30.60;17.08;;;4.30;99.90;;;;;;5032378;28;20127;-63
2022/12/19 07:45:01;;;;;;;29.17;15.32;;;4.30;99.90;;;;;;5022959;28;20122;-64
2022/12/19 07:47:26;;;;;;;30.85;15.13;;;4.30;99.90;;;;;;4996487;28;20050;-62
2022/12/19 07:49:52;;;;;;;31.75;15.98;;;4.40;99.90;;;;;;4983672;28;20050;-62
2022/12/19 07:52:18;;;;;;;33.10;16.10;;;4.40;99.90;;;;;;4930326;28;20037;-63
2022/12/19 07:54:55;;;;;;;25.95;14.18;;;4.40;99.90;;;;;;5177594;27;20132;-62
2022/12/19 07:57:21;;;;;;;31.30;15.60;;;4.50;99.90;;;;;;5130355;27;20417;-61
2022/12/19 07:59:46;;;;;;;33.03;15.57;;;4.60;99.90;;;;;;5114527;27;20039;-64
2022/12/19 08:02:12;;;;;;;31.42;15.52;;;4.60;99.90;;;;;;5140873;27;20039;-63
2022/12/19 08:04:37;;;;;;;33.50;16.05;;;4.60;99.90;;;;;;5101693;27;20047;-63
2022/12/19 08:07:03;;;;;;;27.70;14.93;;;4.60;99.90;;;;;;5077423;28;20481;-62
2022/12/19 08:09:29;;;;;;;28.48;15.52;;;4.60;99.90;;;;;;5075397;28;20044;-67
2022/12/19 08:11:56;;;;;;;30.20;15.55;;;4.70;99.90;;;;;;5027063;28;20041;-62
2022/12/19 08:14:22;;;;;;;25.88;14.50;;;4.70;99.90;;;;;;5008455;28;20050;-64
2022/12/19 08:16:47;;;;;;;30.90;15.88;;;4.70;99.90;;;;;;4964192;28;20121;-63
2022/12/19 08:21:50;;;;;;;30.08;15.77;;;4.80;99.90;;;;;;5195481;27;20138;-61
2022/12/19 08:24:16;;;;;;;29.08;14.40;;;4.90;99.90;;;;;;5149774;27;20042;-60
2022/12/19 08:26:42;;;;;;;28.23;15.48;;;4.90;99.90;;;;;;5152267;27;20308;-59
2022/12/19 08:29:07;;;;;;;34.03;16.08;;;5.00;99.90;;;;;;5169033;27;20469;-60
2022/12/19 08:31:33;;;;;;;30.75;14.98;;;4.90;99.90;;;;;;5164278;27;20045;-63
2022/12/19 08:33:59;;;;;;;25.27;14.68;;;5.00;99.90;;;;;;5120213;27;20454;-63
2022/12/19 08:36:24;;;;;;;25.80;15.13;;;5.10;99.90;;;;;;5091951;27;20106;-65
2022/12/19 08:38:50;;;;;;;30.90;15.73;;;5.10;99.90;;;;;;5083152;28;20563;-63
2022/12/19 08:41:16;;;;;;;31.63;15.82;;;5.20;99.90;;;;;;5044478;28;20492;-63
2022/12/19 08:43:46;;;;;;;26.88;14.90;;;5.20;99.90;;;;;;4970331;28;20030;-63
2022/12/19 08:46:24;;;;;;;27.90;15.63;;;5.20;99.90;;;;;;5180736;27;20605;-62
2022/12/19 08:48:50;;;;;;;27.42;15.07;;;5.30;99.90;;;;;;5158959;27;20038;-62
2022/12/19 08:51:17;;;;;;;28.80;16.13;;;5.30;99.90;;;;;;5144252;27;20044;-63
2022/12/19 08:53:44;;;;;;;27.90;15.82;;;5.30;99.90;;;;;;5118495;27;20084;-63
2022/12/19 08:56:18;;;;;;;28.42;16.02;;;5.40;99.90;;;;;;5062668;28;20547;-64
2022/12/19 08:58:45;;;;;;;24.98;14.68;;;5.40;99.90;;;;;;4964723;28;20046;-63
2022/12/19 09:01:14;;;;;;;32.05;16.70;;;5.50;99.90;;;;;;4960930;28;20128;-63
2022/12/19 09:03:40;;;;;;;30.58;16.65;;;5.50;99.90;;;;;;4852775;29;20050;-65
2022/12/19 09:06:08;;;;;;;28.58;15.70;;;5.50;99.90;;;;;;4770415;29;20512;-63
2022/12/19 09:08:35;;;;;;;29.65;16.88;;;5.60;99.90;;;;;;4717883;29;20050;-63
2022/12/19 09:11:15;;;;;;;30.23;16.13;;;5.60;99.90;;;;;;5178579;27;20133;-62
2022/12/19 09:13:42;;;;;;;32.10;16.67;;;5.70;99.90;;;;;;5145768;27;20058;-63
2022/12/19 09:16:28;;;;;;;34.35;17.25;;;5.70;99.90;;;;;;5138074;27;20042;-64
2022/12/19 09:18:57;;;;;;;31.15;17.10;;;5.80;99.90;;;;;;5094252;28;20461;-63
2022/12/19 09:21:24;;;;;;;32.97;17.55;;;5.80;99.90;;;;;;5083672;28;20132;-65
2022/12/19 09:23:53;;;;;;;35.75;18.10;;;5.80;99.90;;;;;;5034702;28;20049;-62
2022/12/19 09:26:20;;;;;;;32.35;18.02;;;5.90;99.90;;;;;;5005876;28;20043;-61
2022/12/19 09:28:46;;;;;;;33.92;18.20;;;5.90;99.90;;;;;;5005240;28;20440;-65
2022/12/19 09:31:18;;;;;;;32.75;17.52;;;5.90;99.90;;;;;;4905992;28;20099;-64
2022/12/19 09:33:45;;;;;;;28.60;17.38;;;5.90;99.90;;;;;;4910568;28;20055;-63
2022/12/19 09:36:23;;;;;;;32.95;16.83;;;6.00;99.90;;;;;;5195770;27;20147;-64
2022/12/19 09:38:51;;;;;;;33.03;17.50;;;6.10;99.90;;;;;;5161977;27;20081;-63
2022/12/19 09:41:28;;;;;;;28.92;16.52;;;6.10;99.90;;;;;;5188090;27;20098;-63
2022/12/19 09:44:03;;;;;;;25.92;15.35;;;6.10;99.90;;;;;;5133284;27;20391;-64
2022/12/19 09:46:52;;;;;;;28.60;16.25;;;6.20;99.90;;;;;;5065638;28;20063;-65
2022/12/19 09:49:33;;;;;;;29.85;16.60;;;6.20;99.90;;;;;;5030429;28;20549;-63
2022/12/19 09:52:05;;;;;;;30.20;16.52;;;6.20;99.90;;;;;;5019447;28;20053;-63
2022/12/19 09:54:38;;;;;;;26.95;15.35;;;6.30;99.90;;;;;;4972066;28;20082;-63
2022/12/19 09:57:10;;;;;;;27.02;15.18;;;6.30;99.90;;;;;;4848675;29;20047;-66
2022/12/19 10:02:47;;;;;;;24.00;14.70;;;6.80;99.90;;;;;;5193648;27;20124;-63
2022/12/19 10:05:18;;;;;;;27.50;14.90;;;6.40;99.90;;;;;;5162709;27;20058;-65
2022/12/19 10:07:47;;;;;;;24.98;14.80;;;6.40;99.90;;;;;;5095300;27;20050;-63
2022/12/19 10:10:20;;;;;;;23.10;13.38;;;6.50;99.90;;;;;;5157417;27;20058;-63
2022/12/19 10:13:13;;;;;;;26.48;14.15;;;5.90;99.90;;;;;;5119949;27;20043;-64
2022/12/19 10:15:57;;;;;;;29.60;15.38;;;6.50;99.90;;;;;;4967028;28;20050;-62
2022/12/19 10:18:44;;;;;;;22.30;13.80;;;6.50;99.90;;;;;;4938266;28;20111;-64
2022/12/19 10:21:34;;;;;;;26.45;14.60;;;6.50;99.90;;;;;;4908526;29;20041;-63
2022/12/19 10:24:41;;;;;;;24.52;13.05;;;6.60;99.90;;;;;;4816366;29;20062;-62
2022/12/19 10:27:27;;;;;;;22.38;13.02;;;6.60;99.90;;;;;;5195916;27;20120;-61
2022/12/19 10:30:15;;;;;;;24.60;14.32;;;6.60;99.90;;;;;;5157724;27;20038;-65
2022/12/19 10:33:05;;;;;;;21.98;13.10;;;6.70;99.90;;;;;;5144622;27;20416;-64
2022/12/19 10:35:41;;;;;;;25.80;14.00;;;6.80;99.90;;;;;;5074824;28;20049;-62
2022/12/19 10:38:20;;;;;;;22.88;12.43;;;6.80;99.90;;;;;;5054886;28;20073;-63
2022/12/19 10:41:15;;;;;;;19.45;12.20;;;6.80;99.90;;;;;;4985800;28;20059;-63
2022/12/19 10:43:49;;;;;;;22.67;12.95;;;6.80;99.90;;;;;;4945457;28;20046;-62
2022/12/19 10:46:32;;;;;;;18.80;11.50;;;6.90;99.90;;;;;;4878773;29;20152;-65
2022/12/19 10:51:35;;;;;;;22.40;12.00;;;7.00;99.90;;;;;;5191056;27;20140;-63
2022/12/19 10:54:00;;;;;;;17.40;11.25;;;7.00;99.90;;;;;;5186176;27;20041;-64
2022/12/19 10:56:29;;;;;;;21.88;11.60;;;7.00;99.90;;;;;;5190996;27;20038;-62
2022/12/19 10:58:57;;;;;;;21.40;12.40;;;7.00;99.90;;;;;;5198074;27;20117;-64
2022/12/19 11:01:32;;;;;;;20.15;11.55;;;7.00;99.90;;;;;;5187969;27;20038;-63
2022/12/19 11:04:20;;;;;;;18.65;11.10;;;7.00;99.90;;;;;;5100211;28;20048;-63
2022/12/19 11:07:03;;;;;;;18.83;11.93;;;7.00;99.90;;;;;;5083131;28;20050;-63
2022/12/19 11:09:37;;;;;;;17.80;11.27;;;7.10;99.90;;;;;;5063874;28;21276;-65
2022/12/19 11:12:12;;;;;;;19.30;11.65;;;7.20;99.90;;;;;;4928780;28;20619;-63
2022/12/19 11:15:14;;;;;;;20.83;11.55;;;7.20;99.90;;;;;;5173049;27;20149;-61
2022/12/19 11:17:40;;;;;;;13.75;9.63;;;7.20;99.90;;;;;;5119263;27;20056;-60
2022/12/19 11:20:18;;;;;;;18.13;10.88;;;7.20;99.90;;;;;;5173466;27;20480;-61
2022/12/19 11:22:57;;;;;;;21.77;12.25;;;7.20;99.90;;;;;;5092849;28;20052;-60
2022/12/19 11:25:34;;;;;;;19.70;12.13;;;7.20;99.90;;;;;;5077636;28;20048;-59
2022/12/19 11:28:04;;;;;;;18.58;11.57;;;7.20;99.90;;;;;;5011677;28;20487;-59
2022/12/19 11:30:30;;;;;;;17.88;11.15;;;7.20;99.90;;;;;;5002731;28;20448;-59
2022/12/19 11:33:16;;;;;;;16.00;10.55;;;7.20;99.90;;;;;;4975426;28;20101;-59
2022/12/19 11:35:51;;;;;;;18.40;11.13;;;7.30;99.90;;;;;;4924057;28;20047;-59
2022/12/19 11:40:56;;;;;;;17.45;10.68;;;7.20;99.90;;;;;;5173346;27;20132;-62
2022/12/19 11:43:34;;;;;;;18.50;11.20;;;7.30;99.90;;;;;;5138833;27;20039;-62
2022/12/19 11:46:15;;;;;;;17.38;10.35;;;7.30;99.90;;;;;;5098899;28;20065;-62
2022/12/19 11:48:54;;;;;;;18.35;10.85;;;7.30;99.90;;;;;;5066975;28;20049;-62
2022/12/19 11:51:41;;;;;;;17.85;11.68;;;7.30;99.90;;;;;;5067204;28;20056;-62
2022/12/19 11:54:31;;;;;;;17.52;10.75;;;7.40;99.90;;;;;;5014217;28;20046;-63
2022/12/19 11:56:56;;;;;;;17.10;10.68;;;7.40;99.90;;;;;;4947798;28;20062;-63
2022/12/19 11:59:37;;;;;;;16.88;10.80;;;7.40;99.90;;;;;;4960752;28;20035;-63
2022/12/19 12:02:17;;;;;;;18.33;11.48;;;7.40;99.90;;;;;;4937723;28;20121;-73
2022/12/19 12:05:22;;;;;;;20.63;11.45;;;7.40;99.90;;;;;;5171657;27;20137;-60
2022/12/19 12:08:29;;;;;;;18.63;10.50;;;7.40;99.90;;;;;;5092954;27;20066;-60
2022/12/19 12:11:00;;;;;;;19.23;11.02;;;7.40;99.90;;;;;;5077464;28;20057;-60
2022/12/19 12:13:40;;;;;;;16.00;10.65;;;7.50;99.90;;;;;;5077497;28;20119;-60
2022/12/19 12:16:09;;;;;;;15.30;9.98;;;7.50;99.90;;;;;;4972264;28;20049;-60
2022/12/19 12:18:43;;;;;;;15.18;9.55;;;7.50;99.90;;;;;;4963170;28;20154;-60
2022/12/19 12:21:23;;;;;;;20.35;11.43;;;7.50;99.90;;;;;;4898608;29;20098;-60
2022/12/19 12:23:52;;;;;;;16.70;10.82;;;7.50;99.90;;;;;;4854528;29;20056;-61
2022/12/19 12:26:26;;;;;;;17.23;11.27;;;7.50;99.90;;;;;;4837007;29;20034;-60
2022/12/19 12:31:37;;;;;;;17.60;10.45;;;7.50;99.90;;;;;;5190422;27;20120;-60
2022/12/19 12:34:32;;;;;;;16.90;10.68;;;7.50;99.90;;;;;;5131145;27;20047;-62
2022/12/19 12:37:22;;;;;;;19.52;11.35;;;7.60;99.90;;;;;;5100347;28;20053;-62
2022/12/19 12:40:22;;;;;;;19.35;11.45;;;7.60;99.90;;;;;;5068427;28;20487;-66
2022/12/19 12:42:51;;;;;;;20.02;11.48;;;7.50;99.90;;;;;;4945656;28;20454;-61
2022/12/19 12:45:40;;;;;;;17.58;11.48;;;7.50;99.90;;;;;;4900894;29;20404;-60
2022/12/19 12:48:24;;;;;;;17.52;10.93;;;7.60;99.90;;;;;;4874397;29;20487;-63
2022/12/19 12:50:51;;;;;;;19.30;11.02;;;7.60;99.90;;;;;;4805583;29;20052;-63
2022/12/19 12:53:21;;;;;;;17.92;10.27;;;7.60;99.90;;;;;;4709367;30;20533;-62
2022/12/19 12:55:56;;;;;;;15.70;10.43;;;7.60;99.90;;;;;;5176127;27;20137;-62
2022/12/19 12:58:40;;;;;;;16.33;11.55;;;7.60;99.90;;;;;;5152060;27;20043;-63
2022/12/19 13:01:10;;;;;;;17.27;10.23;;;7.70;99.90;;;;;;5120783;27;20039;-63
2022/12/19 13:03:39;;;;;;;19.52;11.60;;;7.70;99.90;;;;;;5104718;28;20043;-63
2022/12/19 13:06:25;;;;;;;18.27;10.60;;;7.70;99.90;;;;;;5091435;28;20506;-62
2022/12/19 13:09:13;;;;;;;16.20;10.80;;;7.70;99.90;;;;;;5054468;28;20044;-62
2022/12/19 13:14:34;;;;;;;15.38;10.85;;;7.70;99.90;;;;;;4845107;29;20427;-62
2022/12/19 13:17:04;;;;;;;20.70;10.65;;;7.80;99.90;;;;;;4765589;29;20131;-61
2022/12/19 13:22:08;;;;;;;15.85;10.00;;;7.90;99.90;;;;;;5178390;27;20583;-60
2022/12/19 13:24:51;;;;;;;17.93;10.73;;;7.90;99.90;;;;;;5115859;27;20066;-59
2022/12/19 13:27:19;;;;;;;17.25;10.23;;;7.90;99.90;;;;;;5082198;28;20048;-59
2022/12/19 13:30:03;;;;;;;16.02;9.45;;;8.00;99.90;;;;;;5134442;27;20489;-62
2022/12/19 13:32:39;;;;;;;15.82;10.13;;;8.00;99.90;;;;;;5096800;28;20044;-63
2022/12/19 13:35:27;;;;;;;17.15;9.55;;;8.00;99.90;;;;;;5053031;28;20053;-63
2022/12/19 13:38:17;;;;;;;15.35;8.70;;;8.00;99.90;;;;;;4934316;28;20460;-63
2022/12/19 13:40:42;;;;;;;13.10;8.30;;;8.10;99.90;;;;;;4869602;29;20064;-63